Pontyclun, United Kingdom
Current Conditions -  °F | °C
As of 9:20 PM on Friday 19 Dec 2014 (Local Time) from EGFF Reporting Station
Few Clouds Few Clouds  
Wind Chill: 38°   Ceiling: Unl
Heat Index: 45°   Visibility: 6mi
Dew Point: 39°   Wind: 15mph
Humidity: 81%   Direction: 290°WNW
Pressure: 30.24"   Gusts: NA
Location:  51.54°N, 3.39°W
Report Text: EGFF 192120Z AUTO 29013KT 9999 FEW034 07/04 Q1024
Loading
Personal Weather Stations






























Interactive Weather Map New forecast layout! Learn more

10-Day Weather Forecast

Advertisements
Track Severe Weather on mobile